createdAt,value
2023-05-17T00:04:16.398Z,7.43
2023-05-17T00:09:26.646Z,7.43
2023-05-17T00:14:35.167Z,7.37
2023-05-17T00:19:43.834Z,7.37
2023-05-17T00:24:52.764Z,7.57
2023-05-17T00:30:01.350Z,7.57
2023-05-17T00:35:10.537Z,7.48
2023-05-17T00:40:20.148Z,7.48
2023-05-17T00:45:30.683Z,7.54
2023-05-17T01:02:27.004Z,7.6
2023-05-17T01:14:07.660Z,7.58
2023-05-17T01:19:17.393Z,7.58
2023-05-17T01:24:26.598Z,7.64
2023-05-17T01:45:03.623Z,7.49
2023-05-17T01:50:13.469Z,7.49
2023-05-17T01:55:22.479Z,7.76
2023-05-17T02:00:32.268Z,7.76
2023-05-17T02:05:43.286Z,7.4
2023-05-17T02:10:52.430Z,7.4
2023-05-17T02:16:02.168Z,7.44
2023-05-17T02:21:12.578Z,7.44
2023-05-17T02:26:22.997Z,8.06
2023-05-17T02:47:01.573Z,7.66
2023-05-17T02:52:11.200Z,7.66
2023-05-17T02:57:19.731Z,7.9
2023-05-17T03:02:31.218Z,7.9
2023-05-17T03:07:39.144Z,7.7
2023-05-17T03:12:48.262Z,7.7
2023-05-17T03:17:58.907Z,7.63
2023-05-17T03:23:06.893Z,7.86
2023-05-17T03:28:15.775Z,7.86
2023-05-17T03:33:26.430Z,7.59
2023-05-17T03:38:36.501Z,7.59
2023-05-17T03:43:46.175Z,8.09
2023-05-17T03:48:56.110Z,8.09
2023-05-17T03:54:05.082Z,7.78
2023-05-17T03:59:14.829Z,7.78
2023-05-17T04:04:25.301Z,7.97
2023-05-17T04:09:33.694Z,7.97
2023-05-17T04:14:43.454Z,7.78
2023-05-17T04:19:52.400Z,7.78
2023-05-17T04:25:00.458Z,7.96
2023-05-17T04:30:09.491Z,7.96
2023-05-17T04:35:18.024Z,8.02
2023-05-17T04:40:28.441Z,8.02
2023-05-17T04:45:37.073Z,7.76
2023-05-17T05:47:42.302Z,7.76
2023-05-17T05:52:50.157Z,7.76
2023-05-17T05:57:58.003Z,7.84
2023-05-17T06:03:10.334Z,7.84
2023-05-17T06:08:18.792Z,8.05
2023-05-17T06:13:27.947Z,8.05
2023-05-17T06:18:37.837Z,8.19
2023-05-17T06:23:46.198Z,8.07
2023-05-17T06:28:55.306Z,8.07
2023-05-17T06:34:05.094Z,7.93
2023-05-17T06:39:12.891Z,7.93
2023-05-17T06:44:22.700Z,7.78
2023-05-17T06:49:31.741Z,7.78
2023-05-17T06:54:56.935Z,8.1
2023-05-17T07:00:05.365Z,8.1
2023-05-17T08:02:01.428Z,8.01
2023-05-17T08:07:09.696Z,7.83
2023-05-17T08:12:19.796Z,7.83
2023-05-17T08:17:28.838Z,7.83
2023-05-17T08:22:37.127Z,7.83
2023-05-17T08:27:46.182Z,7.77
2023-05-17T08:32:56.138Z,7.77
2023-05-17T08:38:04.423Z,7.68
2023-05-17T08:43:14.194Z,7.68
2023-05-17T08:48:24.186Z,8.29
2023-05-17T08:53:34.357Z,8.29
2023-05-17T08:58:58.515Z,7.82
2023-05-17T09:03:52.902Z,7.82
2023-05-17T09:09:02.003Z,7.57
2023-05-17T09:14:10.844Z,7.57
2023-05-17T09:19:20.759Z,7.8
2023-05-17T09:24:28.428Z,7.71
2023-05-17T09:29:38.792Z,7.71
2023-05-17T09:34:47.303Z,7.66
2023-05-17T09:39:55.231Z,7.66
2023-05-17T09:45:04.285Z,7.93
2023-05-17T09:50:14.020Z,7.93
2023-05-17T09:55:23.121Z,7.76
2023-05-17T10:00:32.424Z,7.76
2023-05-17T10:05:42.377Z,7.83
2023-05-17T10:10:50.478Z,7.83
2023-05-17T11:07:32.847Z,8.1
2023-05-17T11:12:41.125Z,8.1
2023-05-17T11:17:50.672Z,7.76
2023-05-17T11:23:02.671Z,7.76
2023-05-17T11:33:34.826Z,7.97
2023-05-17T11:43:42.397Z,7.67
2023-05-17T11:48:51.870Z,7.65
2023-05-17T11:54:00.576Z,7.65
2023-05-17T11:59:11.643Z,7.73
2023-05-17T13:18:44.047Z,7.82
2023-05-17T13:23:51.949Z,7.82
2023-05-17T14:20:38.708Z,7.77
2023-05-17T14:25:51.087Z,8.09
2023-05-17T14:31:00.751Z,8.09
2023-05-17T14:41:45.406Z,7.91
2023-05-17T14:46:55.095Z,7.9
2023-05-17T14:52:03.488Z,7.9
2023-05-17T14:57:14.712Z,7.86
2023-05-17T15:02:21.797Z,7.86
2023-05-17T15:07:31.504Z,7.99
2023-05-17T15:12:46.416Z,7.99
2023-05-17T15:17:56.747Z,7.93
2023-05-17T15:23:05.868Z,7.93
2023-05-17T15:28:16.275Z,8.04
2023-05-17T15:33:25.743Z,8.04
2023-05-17T15:38:33.897Z,7.76
2023-05-17T15:43:43.923Z,7.76
2023-05-17T15:48:52.453Z,8
2023-05-17T15:54:04.475Z,8
2023-05-17T15:59:13.577Z,7.77
2023-05-17T16:04:23.270Z,7.77
2023-05-17T16:09:31.798Z,7.78
2023-05-17T16:14:41.121Z,7.78
2023-05-17T16:19:52.271Z,7.82
2023-05-17T16:25:01.718Z,7.82
2023-05-17T16:30:11.476Z,7.85
2023-05-17T16:35:23.839Z,7.85
2023-05-17T16:40:54.064Z,7.8
2023-05-17T16:46:03.783Z,7.84
2023-05-17T16:51:17.375Z,7.84
2023-05-17T16:56:29.336Z,8.02
2023-05-17T17:01:37.871Z,8.02
2023-05-17T17:06:48.850Z,7.79
2023-05-17T17:11:57.737Z,7.79
2023-05-17T17:17:10.023Z,8.09
2023-05-17T17:22:18.545Z,8.09
2023-05-17T17:27:29.819Z,8.01
2023-05-17T17:32:40.183Z,8.01
2023-05-17T17:37:50.436Z,7.92
2023-05-17T18:19:07.705Z,7.78
2023-05-17T18:24:16.317Z,7.78
2023-05-17T18:34:37.054Z,7.73
2023-05-17T19:26:10.911Z,7.69
2023-05-17T19:31:19.533Z,7.61
2023-05-17T19:36:27.844Z,7.61
2023-05-17T19:41:38.175Z,7.66
2023-05-17T19:46:48.336Z,7.59
2023-05-17T19:51:58.973Z,7.59
2023-05-17T19:57:07.463Z,7.64
2023-05-17T20:02:17.166Z,7.64
2023-05-17T20:07:25.060Z,7.46
2023-05-17T20:12:34.252Z,7.46
2023-05-17T20:17:44.248Z,7.62
2023-05-17T20:22:54.985Z,7.62
2023-05-17T20:28:05.431Z,7.57
2023-05-17T20:33:13.597Z,7.57
2023-05-17T20:38:21.882Z,7.49
2023-05-17T20:43:30.796Z,7.49
2023-05-17T20:48:39.960Z,7.76
2023-05-17T20:53:49.066Z,7.76
2023-05-17T20:58:57.531Z,7.46
2023-05-17T21:04:06.279Z,7.46
2023-05-17T21:09:15.775Z,7.36
2023-05-17T21:14:24.236Z,7.36
2023-05-17T21:19:33.581Z,7.56
2023-05-17T21:24:42.516Z,7.56
2023-05-17T21:29:51.637Z,7.43
2023-05-17T21:35:01.428Z,7.43
2023-05-17T21:40:10.244Z,7.66
2023-05-17T21:45:19.020Z,7.66
2023-05-17T22:36:50.838Z,7.61
2023-05-17T22:42:00.579Z,7.4
2023-05-17T22:47:09.582Z,7.54
2023-05-17T22:52:18.866Z,7.54
2023-05-17T22:57:27.286Z,7.52
2023-05-17T23:02:37.284Z,7.52
2023-05-17T23:07:46.211Z,7.47
2023-05-17T23:12:55.942Z,7.47
2023-05-17T23:18:04.708Z,7.65
2023-05-17T23:23:14.826Z,7.65
2023-05-17T23:28:24.583Z,7.44
2023-05-17T23:33:34.352Z,7.44
2023-05-17T23:38:44.729Z,7.8
2023-05-17T23:43:53.850Z,7.8
2023-05-17T23:49:03.620Z,7.5
2023-05-17T23:54:13.383Z,7.5
2023-05-17T23:59:23.132Z,7.6
